Terminal Aerodrome Forecast
Issued by NWS

Home | Current Version | Previous Version | Graphics & Text | Print | Product List | Glossary Off
Versions: 1 2 3 4 5 6 7 8 9 10 11 12 13 14 15 16 17

000
FTUS43 KDDC 251735
TAFHYS
TAF
KHYS 251735Z 2518/2618 36013KT P6SM OVC025
     FM260500 36016G25KT P6SM VCSH OVC020
     FM260900 35020G29KT P6SM OVC020
     FM261300 34017G27KT P6SM BKN040=

USA.gov is the U.S. government's official web portal to all federal, state and local government web resources and services.